Carnival Splendor — 3EUS — position and weather

sailwx.info

Track history (hours):
 
Tides and Currents Weather Stations Pressure Air Temp Water Temp Dewpoint Dewpoint Depression Visibility Wind Speed Wind Dir Waves Ship Positions

Carnival Splendor

Last reported at 2017-Nov-17 23:28 UTC. Time now 2017-Nov-19 03:13 UTC.
Position N 20°39' W 086°54'.

Length 290 m; draft 8.3 m.

Type: Ship. MMSI: 372808000.

Date/timePositionNaut miles runAvg speedWind from/ knotsBaromVisibWave heightAir tempDewpointWater temp
2017-Nov-17 23:28N 20°39' W 086°54'818.2
2017-Nov-17 23:00N 20°32' W 086°59'4 6.2
2017-Nov-17 22:26N 20°29' W 086°59'0 0.0
2017-Nov-17 21:59N 20°29' W 086°59'0 0.0
2017-Nov-17 21:29N 20°29' W 086°59'0 0.0
2017-Nov-17 20:59N 20°29' W 086°59'0 0.0
2017-Nov-17 20:29N 20°29' W 086°59'0 0.0
2017-Nov-17 19:58N 20°29' W 086°59'0 0.0
2017-Nov-17 19:25N 20°29' W 086°59'0 0.0
2017-Nov-17 18:58N 20°29' W 086°59'0 0.0
2017-Nov-17 18:28N 20°29' W 086°59'0 0.0
2017-Nov-17 18:00N 20°29' W 086°59'0 0.0
2017-Nov-17 17:30N 20°29' W 086°59'0 0.0
2017-Nov-17 17:00N 20°29' W 086°59'0 0.0
2017-Nov-17 16:30N 20°29' W 086°59'0 0.0
2017-Nov-17 16:00N 20°29' W 086°59'0 0.0
2017-Nov-17 15:29N 20°29' W 086°59'0 0.0
2017-Nov-17 14:59N 20°29' W 086°59'0 0.0
2017-Nov-17 14:29N 20°29' W 086°59'0 0.0
2017-Nov-17 13:59N 20°29' W 086°59'0 0.0
2017-Nov-17 13:25N 20°29' W 086°59'0 0.0
2017-Nov-17 12:58N 20°29' W 086°59'0 0.5
2017-Nov-17 12:31N 20°29' W 086°59'2 4.4
2017-Nov-17 12:00N 20°29' W 087°01'713.7
2017-Nov-17 11:31N 20°23' W 087°05'  
2017-Nov-12 23:33N 25°20' W 079°56'117.1
2017-Nov-12 23:29N 25°22' W 079°56'816.9
2017-Nov-12 23:00N 25°30' W 079°56'815.1
2017-Nov-12 22:30N 25°37' W 079°56'816.1
2017-Nov-12 22:00N 25°43' W 080°02'510.1
2017-Nov-12 21:30N 25°46' W 080°07'3 5.0
2017-Nov-12 20:55N 25°47' W 080°10'0 0.0
2017-Nov-12 20:28N 25°47' W 080°10'0 0.0
2017-Nov-12 19:58N 25°47' W 080°10'0 0.0
2017-Nov-12 19:28N 25°47' W 080°10'0 0.0
2017-Nov-12 18:58N 25°47' W 080°10'0 0.0
2017-Nov-12 18:30N 25°47' W 080°10'0 0.0
2017-Nov-12 18:00N 25°47' W 080°10'0 0.0
2017-Nov-12 17:30N 25°47' W 080°10'0 0.0
2017-Nov-12 17:00N 25°47' W 080°10'0 0.0
2017-Nov-12 16:29N 25°47' W 080°10'0 0.0
2017-Nov-12 15:59N 25°47' W 080°10'0 0.0
2017-Nov-12 15:29N 25°47' W 080°10'0 0.0
2017-Nov-12 14:59N 25°47' W 080°10'0 0.0
2017-Nov-12 14:29N 25°47' W 080°10'0 0.0
2017-Nov-12 13:58N 25°47' W 080°10'0 0.0
2017-Nov-12 13:28N 25°47' W 080°10'0 0.0
2017-Nov-12 12:58N 25°47' W 080°10'0 0.0
2017-Nov-12 12:25N 25°47' W 080°10'0 0.0
2017-Nov-12 11:58N 25°47' W 080°10'0 0.0
2017-Nov-12 11:30N 25°47' W 080°10'0 0.0
2017-Nov-12 11:00N 25°47' W 080°10'0 0.1
2017-Nov-12 10:31N 25°47' W 080°10'0 0.4
2017-Nov-12 10:01N 25°47' W 080°10'4 7.4
2017-Nov-12 09:31N 25°45' W 080°07'5 9.4
2017-Nov-12 09:00N 25°47' W 080°02'4 8.3
2017-Nov-12 08:31N 25°50' W 079°58'611.6
2017-Nov-12 08:00N 25°53' W 079°53'714.3
2017-Nov-12 07:30N 25°57' W 079°46'714.9
2017-Nov-12 07:00N 26°01' W 079°39'917.8
2017-Nov-12 06:30N 26°05' W 079°31'918.7
2017-Nov-12 06:00N 26°11' W 079°22'53512.4
2017-Nov-10 11:00N 21°12' W 071°18'   010 / 1371010.027.0 27.019.426.0
Track history (hours):
 
Tides and Currents Weather Stations Pressure Air Temp Water Temp Dewpoint Dewpoint Depression Visibility Wind Speed Wind Dir Waves Ship Positions

Carnival Splendor

Last reported at 2017-Nov-17 23:28 UTC. Time now 2017-Nov-19 03:13 UTC.
Position N 20°39' W 086°54'.

Length 290 m; draft 8.3 m.

Type: Ship. MMSI: 372808000.

Date/timePositionNaut miles runAvg speedWind from/ knotsBaromVisibWave heightAir tempDewpointWater temp
2017-Nov-17 23:28N 20°39' W 086°54'818.2
2017-Nov-17 23:00N 20°32' W 086°59'4 6.2
2017-Nov-17 22:26N 20°29' W 086°59'0 0.0
2017-Nov-17 21:59N 20°29' W 086°59'0 0.0
2017-Nov-17 21:29N 20°29' W 086°59'0 0.0
2017-Nov-17 20:59N 20°29' W 086°59'0 0.0
2017-Nov-17 20:29N 20°29' W 086°59'0 0.0
2017-Nov-17 19:58N 20°29' W 086°59'0 0.0
2017-Nov-17 19:25N 20°29' W 086°59'0 0.0
2017-Nov-17 18:58N 20°29' W 086°59'0 0.0
2017-Nov-17 18:28N 20°29' W 086°59'0 0.0
2017-Nov-17 18:00N 20°29' W 086°59'0 0.0
2017-Nov-17 17:30N 20°29' W 086°59'0 0.0
2017-Nov-17 17:00N 20°29' W 086°59'0 0.0
2017-Nov-17 16:30N 20°29' W 086°59'0 0.0
2017-Nov-17 16:00N 20°29' W 086°59'0 0.0
2017-Nov-17 15:29N 20°29' W 086°59'0 0.0
2017-Nov-17 14:59N 20°29' W 086°59'0 0.0
2017-Nov-17 14:29N 20°29' W 086°59'0 0.0
2017-Nov-17 13:59N 20°29' W 086°59'0 0.0
2017-Nov-17 13:25N 20°29' W 086°59'0 0.0
2017-Nov-17 12:58N 20°29' W 086°59'0 0.5
2017-Nov-17 12:31N 20°29' W 086°59'2 4.4
2017-Nov-17 12:00N 20°29' W 087°01'713.7
2017-Nov-17 11:31N 20°23' W 087°05'  
2017-Nov-12 23:33N 25°20' W 079°56'117.1
2017-Nov-12 23:29N 25°22' W 079°56'816.9
2017-Nov-12 23:00N 25°30' W 079°56'815.1
2017-Nov-12 22:30N 25°37' W 079°56'816.1
2017-Nov-12 22:00N 25°43' W 080°02'510.1
2017-Nov-12 21:30N 25°46' W 080°07'3 5.0
2017-Nov-12 20:55N 25°47' W 080°10'0 0.0
2017-Nov-12 20:28N 25°47' W 080°10'0 0.0
2017-Nov-12 19:58N 25°47' W 080°10'0 0.0
2017-Nov-12 19:28N 25°47' W 080°10'0 0.0
2017-Nov-12 18:58N 25°47' W 080°10'0 0.0
2017-Nov-12 18:30N 25°47' W 080°10'0 0.0
2017-Nov-12 18:00N 25°47' W 080°10'0 0.0
2017-Nov-12 17:30N 25°47' W 080°10'0 0.0
2017-Nov-12 17:00N 25°47' W 080°10'0 0.0
2017-Nov-12 16:29N 25°47' W 080°10'0 0.0
2017-Nov-12 15:59N 25°47' W 080°10'0 0.0
2017-Nov-12 15:29N 25°47' W 080°10'0 0.0
2017-Nov-12 14:59N 25°47' W 080°10'0 0.0
2017-Nov-12 14:29N 25°47' W 080°10'0 0.0
2017-Nov-12 13:58N 25°47' W 080°10'0 0.0
2017-Nov-12 13:28N 25°47' W 080°10'0 0.0
2017-Nov-12 12:58N 25°47' W 080°10'0 0.0
2017-Nov-12 12:25N 25°47' W 080°10'0 0.0
2017-Nov-12 11:58N 25°47' W 080°10'0 0.0
2017-Nov-12 11:30N 25°47' W 080°10'0 0.0
2017-Nov-12 11:00N 25°47' W 080°10'0 0.1
2017-Nov-12 10:31N 25°47' W 080°10'0 0.4
2017-Nov-12 10:01N 25°47' W 080°10'4 7.4
2017-Nov-12 09:31N 25°45' W 080°07'5 9.4
2017-Nov-12 09:00N 25°47' W 080°02'4 8.3
2017-Nov-12 08:31N 25°50' W 079°58'611.6
2017-Nov-12 08:00N 25°53' W 079°53'714.3
2017-Nov-12 07:30N 25°57' W 079°46'714.9
2017-Nov-12 07:00N 26°01' W 079°39'917.8
2017-Nov-12 06:30N 26°05' W 079°31'918.7
2017-Nov-12 06:00N 26°11' W 079°22'53512.4
2017-Nov-10 11:00N 21°12' W 071°18'   010 / 1371010.027.0 27.019.426.0

Dump ship's entire track history